sensor_id;sensor_type;location;lat;lon;timestamp;P1;durP1;ratioP1;P2;durP2;ratioP2
12059;SDS011;6091;51.432;6.880;2023-07-02T00:00:13;1.20;;;1.10;;
12059;SDS011;6091;51.432;6.880;2023-07-02T00:02:41;1.70;;;1.30;;
12059;SDS011;6091;51.432;6.880;2023-07-02T00:05:08;1.40;;;1.30;;
12059;SDS011;6091;51.432;6.880;2023-07-02T00:07:36;2.33;;;1.52;;
12059;SDS011;6091;51.432;6.880;2023-07-02T00:10:04;1.77;;;1.25;;
12059;SDS011;6091;51.432;6.880;2023-07-02T00:12:32;1.77;;;1.40;;
12059;SDS011;6091;51.432;6.880;2023-07-02T00:14:59;1.48;;;1.38;;
12059;SDS011;6091;51.432;6.880;2023-07-02T00:17:27;1.90;;;1.50;;
12059;SDS011;6091;51.432;6.880;2023-07-02T00:19:55;1.55;;;1.42;;
12059;SDS011;6091;51.432;6.880;2023-07-02T00:22:22;1.30;;;1.20;;
12059;SDS011;6091;51.432;6.880;2023-07-02T00:24:49;1.30;;;1.20;;
12059;SDS011;6091;51.432;6.880;2023-07-02T00:27:20;1.55;;;1.45;;
12059;SDS011;6091;51.432;6.880;2023-07-02T00:29:50;1.85;;;1.50;;
12059;SDS011;6091;51.432;6.880;2023-07-02T00:32:17;1.40;;;1.30;;
12059;SDS011;6091;51.432;6.880;2023-07-02T00:34:45;2.42;;;1.70;;
12059;SDS011;6091;51.432;6.880;2023-07-02T00:37:12;1.92;;;1.52;;
12059;SDS011;6091;51.432;6.880;2023-07-02T00:39:39;1.50;;;1.40;;
12059;SDS011;6091;51.432;6.880;2023-07-02T00:42:06;2.40;;;1.48;;
12059;SDS011;6091;51.432;6.880;2023-07-02T00:44:34;1.65;;;1.50;;
12059;SDS011;6091;51.432;6.880;2023-07-02T00:47:09;2.20;;;1.80;;
12059;SDS011;6091;51.432;6.880;2023-07-02T00:49:39;2.08;;;1.88;;
12059;SDS011;6091;51.432;6.880;2023-07-02T00:52:06;1.60;;;1.48;;
12059;SDS011;6091;51.432;6.880;2023-07-02T00:54:33;1.77;;;1.67;;
12059;SDS011;6091;51.432;6.880;2023-07-02T00:57:02;1.50;;;1.40;;
12059;SDS011;6091;51.432;6.880;2023-07-02T00:59:32;1.58;;;1.48;;
12059;SDS011;6091;51.432;6.880;2023-07-02T01:02:02;2.15;;;1.70;;
12059;SDS011;6091;51.432;6.880;2023-07-02T01:04:31;2.13;;;1.70;;
12059;SDS011;6091;51.432;6.880;2023-07-02T01:06:59;1.60;;;1.50;;
12059;SDS011;6091;51.432;6.880;2023-07-02T01:09:27;1.73;;;1.38;;
12059;SDS011;6091;51.432;6.880;2023-07-02T01:11:54;1.63;;;1.40;;
12059;SDS011;6091;51.432;6.880;2023-07-02T01:17:05;1.75;;;1.40;;
12059;SDS011;6091;51.432;6.880;2023-07-02T01:22:21;1.95;;;1.70;;
12059;SDS011;6091;51.432;6.880;2023-07-02T01:24:53;2.15;;;1.80;;
12059;SDS011;6091;51.432;6.880;2023-07-02T01:27:21;3.38;;;2.20;;
12059;SDS011;6091;51.432;6.880;2023-07-02T01:29:51;1.70;;;1.60;;
12059;SDS011;6091;51.432;6.880;2023-07-02T01:32:19;1.70;;;1.60;;
12059;SDS011;6091;51.432;6.880;2023-07-02T01:34:48;2.03;;;1.77;;
12059;SDS011;6091;51.432;6.880;2023-07-02T01:37:18;1.98;;;1.60;;
12059;SDS011;6091;51.432;6.880;2023-07-02T01:39:45;2.20;;;2.00;;
12059;SDS011;6091;51.432;6.880;2023-07-02T01:42:14;2.00;;;1.80;;
12059;SDS011;6091;51.432;6.880;2023-07-02T01:44:47;1.70;;;1.60;;
12059;SDS011;6091;51.432;6.880;2023-07-02T01:47:17;2.28;;;1.90;;
12059;SDS011;6091;51.432;6.880;2023-07-02T01:49:46;2.72;;;2.35;;
12059;SDS011;6091;51.432;6.880;2023-07-02T01:52:13;2.35;;;2.00;;
12059;SDS011;6091;51.432;6.880;2023-07-02T01:54:40;2.00;;;1.80;;
12059;SDS011;6091;51.432;6.880;2023-07-02T01:57:08;3.50;;;2.65;;
12059;SDS011;6091;51.432;6.880;2023-07-02T01:59:35;2.78;;;2.50;;
12059;SDS011;6091;51.432;6.880;2023-07-02T02:02:02;2.58;;;2.25;;
12059;SDS011;6091;51.432;6.880;2023-07-02T02:04:30;2.63;;;2.40;;
12059;SDS011;6091;51.432;6.880;2023-07-02T02:06:57;2.00;;;1.80;;
12059;SDS011;6091;51.432;6.880;2023-07-02T02:09:24;2.60;;;2.40;;
12059;SDS011;6091;51.432;6.880;2023-07-02T02:11:51;2.75;;;2.50;;
12059;SDS011;6091;51.432;6.880;2023-07-02T02:14:21;2.90;;;2.50;;
12059;SDS011;6091;51.432;6.880;2023-07-02T02:16:52;3.33;;;2.08;;
12059;SDS011;6091;51.432;6.880;2023-07-02T02:19:22;2.47;;;1.95;;
12059;SDS011;6091;51.432;6.880;2023-07-02T02:21:51;3.13;;;2.70;;
12059;SDS011;6091;51.432;6.880;2023-07-02T02:24:20;2.95;;;2.22;;
12059;SDS011;6091;51.432;6.880;2023-07-02T02:26:47;4.20;;;2.63;;
12059;SDS011;6091;51.432;6.880;2023-07-02T02:29:14;2.97;;;2.33;;
12059;SDS011;6091;51.432;6.880;2023-07-02T02:31:42;3.65;;;2.80;;
12059;SDS011;6091;51.432;6.880;2023-07-02T02:34:10;2.78;;;2.50;;
12059;SDS011;6091;51.432;6.880;2023-07-02T02:36:37;3.58;;;3.03;;
12059;SDS011;6091;51.432;6.880;2023-07-02T02:39:04;3.42;;;3.13;;
12059;SDS011;6091;51.432;6.880;2023-07-02T02:41:32;3.80;;;3.22;;
12059;SDS011;6091;51.432;6.880;2023-07-02T02:43:59;3.60;;;3.20;;
12059;SDS011;6091;51.432;6.880;2023-07-02T02:46:26;4.07;;;2.85;;
12059;SDS011;6091;51.432;6.880;2023-07-02T02:48:53;3.92;;;3.42;;
12059;SDS011;6091;51.432;6.880;2023-07-02T02:51:20;5.60;;;3.88;;
12059;SDS011;6091;51.432;6.880;2023-07-02T02:53:47;3.92;;;3.45;;
12059;SDS011;6091;51.432;6.880;2023-07-02T02:56:14;3.50;;;3.20;;
12059;SDS011;6091;51.432;6.880;2023-07-02T02:58:43;4.13;;;3.67;;
12059;SDS011;6091;51.432;6.880;2023-07-02T03:01:10;4.10;;;3.70;;
12059;SDS011;6091;51.432;6.880;2023-07-02T03:03:39;4.97;;;3.70;;
12059;SDS011;6091;51.432;6.880;2023-07-02T03:06:15;4.57;;;4.05;;
12059;SDS011;6091;51.432;6.880;2023-07-02T03:08:42;4.00;;;3.60;;
12059;SDS011;6091;51.432;6.880;2023-07-02T03:11:12;5.32;;;4.13;;
12059;SDS011;6091;51.432;6.880;2023-07-02T03:13:39;5.45;;;4.03;;
12059;SDS011;6091;51.432;6.880;2023-07-02T03:16:07;4.35;;;3.90;;
12059;SDS011;6091;51.432;6.880;2023-07-02T03:18:34;4.55;;;4.10;;
12059;SDS011;6091;51.432;6.880;2023-07-02T03:21:01;5.28;;;4.50;;
12059;SDS011;6091;51.432;6.880;2023-07-02T03:23:28;4.30;;;3.90;;
12059;SDS011;6091;51.432;6.880;2023-07-02T03:25:56;4.90;;;4.30;;
12059;SDS011;6091;51.432;6.880;2023-07-02T03:28:23;5.47;;;4.38;;
12059;SDS011;6091;51.432;6.880;2023-07-02T03:30:51;5.35;;;4.10;;
12059;SDS011;6091;51.432;6.880;2023-07-02T03:33:18;4.45;;;3.90;;
12059;SDS011;6091;51.432;6.880;2023-07-02T03:35:45;5.18;;;4.55;;
12059;SDS011;6091;51.432;6.880;2023-07-02T03:38:12;5.00;;;4.50;;
12059;SDS011;6091;51.432;6.880;2023-07-02T03:40:42;4.68;;;4.25;;
12059;SDS011;6091;51.432;6.880;2023-07-02T03:43:12;6.10;;;4.70;;
12059;SDS011;6091;51.432;6.880;2023-07-02T03:45:39;4.60;;;4.18;;
12059;SDS011;6091;51.432;6.880;2023-07-02T03:48:06;5.80;;;4.57;;
12059;SDS011;6091;51.432;6.880;2023-07-02T03:50:33;5.45;;;4.95;;
12059;SDS011;6091;51.432;6.880;2023-07-02T03:53:00;5.72;;;4.25;;
12059;SDS011;6091;51.432;6.880;2023-07-02T03:55:27;6.22;;;5.43;;
12059;SDS011;6091;51.432;6.880;2023-07-02T03:57:54;5.68;;;4.85;;
12059;SDS011;6091;51.432;6.880;2023-07-02T04:00:21;6.03;;;5.22;;
12059;SDS011;6091;51.432;6.880;2023-07-02T04:02:49;5.57;;;5.07;;
12059;SDS011;6091;51.432;6.880;2023-07-02T04:05:16;4.90;;;4.40;;
12059;SDS011;6091;51.432;6.880;2023-07-02T04:07:43;5.95;;;5.35;;
12059;SDS011;6091;51.432;6.880;2023-07-02T04:10:10;5.68;;;4.97;;
12059;SDS011;6091;51.432;6.880;2023-07-02T04:12:37;5.72;;;4.90;;
12059;SDS011;6091;51.432;6.880;2023-07-02T04:15:04;7.45;;;6.10;;
12059;SDS011;6091;51.432;6.880;2023-07-02T04:17:32;6.25;;;5.22;;
12059;SDS011;6091;51.432;6.880;2023-07-02T04:20:00;7.40;;;6.15;;
12059;SDS011;6091;51.432;6.880;2023-07-02T04:22:32;7.50;;;6.72;;
12059;SDS011;6091;51.432;6.880;2023-07-02T04:25:00;7.05;;;6.35;;
12059;SDS011;6091;51.432;6.880;2023-07-02T04:27:47;7.53;;;6.80;;
12059;SDS011;6091;51.432;6.880;2023-07-02T04:30:17;6.32;;;5.68;;
12059;SDS011;6091;51.432;6.880;2023-07-02T04:32:44;7.18;;;6.45;;
12059;SDS011;6091;51.432;6.880;2023-07-02T04:35:12;7.68;;;6.63;;
12059;SDS011;6091;51.432;6.880;2023-07-02T04:37:39;6.80;;;6.20;;
12059;SDS011;6091;51.432;6.880;2023-07-02T04:40:07;7.68;;;6.72;;
12059;SDS011;6091;51.432;6.880;2023-07-02T04:42:36;8.73;;;7.05;;
12059;SDS011;6091;51.432;6.880;2023-07-02T04:45:05;8.55;;;6.93;;
12059;SDS011;6091;51.432;6.880;2023-07-02T04:47:34;10.45;;;7.70;;
12059;SDS011;6091;51.432;6.880;2023-07-02T04:50:03;8.43;;;7.20;;
12059;SDS011;6091;51.432;6.880;2023-07-02T04:52:31;7.80;;;6.90;;
12059;SDS011;6091;51.432;6.880;2023-07-02T04:54:58;7.15;;;6.43;;
12059;SDS011;6091;51.432;6.880;2023-07-02T04:57:25;8.13;;;6.72;;
12059;SDS011;6091;51.432;6.880;2023-07-02T04:59:54;7.28;;;6.30;;
12059;SDS011;6091;51.432;6.880;2023-07-02T05:02:21;8.20;;;6.55;;
12059;SDS011;6091;51.432;6.880;2023-07-02T05:04:48;8.75;;;7.65;;
12059;SDS011;6091;51.432;6.880;2023-07-02T05:07:16;8.18;;;7.38;;
12059;SDS011;6091;51.432;6.880;2023-07-02T05:09:43;7.07;;;6.38;;
12059;SDS011;6091;51.432;6.880;2023-07-02T05:12:10;7.30;;;6.55;;
12059;SDS011;6091;51.432;6.880;2023-07-02T05:14:37;8.68;;;7.88;;
12059;SDS011;6091;51.432;6.880;2023-07-02T05:17:04;10.35;;;7.30;;
12059;SDS011;6091;51.432;6.880;2023-07-02T05:19:31;8.65;;;7.75;;
12059;SDS011;6091;51.432;6.880;2023-07-02T05:21:58;7.75;;;6.90;;
12059;SDS011;6091;51.432;6.880;2023-07-02T05:24:25;8.90;;;7.45;;
12059;SDS011;6091;51.432;6.880;2023-07-02T05:26:52;8.63;;;7.72;;
12059;SDS011;6091;51.432;6.880;2023-07-02T05:29:19;8.85;;;7.38;;
12059;SDS011;6091;51.432;6.880;2023-07-02T05:31:46;10.18;;;8.23;;
12059;SDS011;6091;51.432;6.880;2023-07-02T05:34:13;8.75;;;7.70;;
12059;SDS011;6091;51.432;6.880;2023-07-02T05:36:40;8.63;;;7.75;;
12059;SDS011;6091;51.432;6.880;2023-07-02T05:39:07;10.43;;;8.30;;
12059;SDS011;6091;51.432;6.880;2023-07-02T05:41:35;9.30;;;7.78;;
12059;SDS011;6091;51.432;6.880;2023-07-02T05:44:02;9.45;;;8.25;;
12059;SDS011;6091;51.432;6.880;2023-07-02T05:46:29;11.57;;;8.82;;
12059;SDS011;6091;51.432;6.880;2023-07-02T05:48:56;8.70;;;7.82;;
12059;SDS011;6091;51.432;6.880;2023-07-02T05:51:23;9.40;;;8.10;;
12059;SDS011;6091;51.432;6.880;2023-07-02T05:53:51;8.93;;;7.88;;
12059;SDS011;6091;51.432;6.880;2023-07-02T05:56:19;9.23;;;8.18;;
12059;SDS011;6091;51.432;6.880;2023-07-02T05:58:46;9.50;;;7.90;;
12059;SDS011;6091;51.432;6.880;2023-07-02T06:01:15;8.45;;;7.63;;
12059;SDS011;6091;51.432;6.880;2023-07-02T06:03:42;9.82;;;8.82;;
12059;SDS011;6091;51.432;6.880;2023-07-02T06:06:12;9.52;;;8.07;;
12059;SDS011;6091;51.432;6.880;2023-07-02T06:08:39;9.77;;;8.65;;
12059;SDS011;6091;51.432;6.880;2023-07-02T06:11:06;9.52;;;8.40;;
12059;SDS011;6091;51.432;6.880;2023-07-02T06:13:33;8.57;;;7.78;;
12059;SDS011;6091;51.432;6.880;2023-07-02T06:16:00;9.23;;;8.15;;
12059;SDS011;6091;51.432;6.880;2023-07-02T06:18:27;9.65;;;8.35;;
12059;SDS011;6091;51.432;6.880;2023-07-02T06:20:56;9.50;;;7.95;;
12059;SDS011;6091;51.432;6.880;2023-07-02T06:23:23;8.93;;;7.47;;
12059;SDS011;6091;51.432;6.880;2023-07-02T06:25:50;8.55;;;7.80;;
12059;SDS011;6091;51.432;6.880;2023-07-02T06:28:19;8.90;;;8.00;;
12059;SDS011;6091;51.432;6.880;2023-07-02T06:30:46;9.02;;;7.82;;
12059;SDS011;6091;51.432;6.880;2023-07-02T06:33:14;9.30;;;7.93;;
12059;SDS011;6091;51.432;6.880;2023-07-02T06:35:41;8.98;;;8.02;;
12059;SDS011;6091;51.432;6.880;2023-07-02T06:38:08;9.85;;;8.23;;
12059;SDS011;6091;51.432;6.880;2023-07-02T06:40:35;9.75;;;7.82;;
12059;SDS011;6091;51.432;6.880;2023-07-02T06:43:02;10.45;;;8.15;;
12059;SDS011;6091;51.432;6.880;2023-07-02T06:45:29;8.90;;;7.88;;
12059;SDS011;6091;51.432;6.880;2023-07-02T06:47:56;8.90;;;8.00;;
12059;SDS011;6091;51.432;6.880;2023-07-02T06:50:23;8.90;;;7.95;;
12059;SDS011;6091;51.432;6.880;2023-07-02T06:52:50;9.55;;;8.55;;
12059;SDS011;6091;51.432;6.880;2023-07-02T06:55:17;10.85;;;8.15;;
12059;SDS011;6091;51.432;6.880;2023-07-02T06:57:45;9.85;;;8.15;;
12059;SDS011;6091;51.432;6.880;2023-07-02T07:00:12;8.65;;;7.32;;
12059;SDS011;6091;51.432;6.880;2023-07-02T07:02:40;9.60;;;7.65;;
12059;SDS011;6091;51.432;6.880;2023-07-02T07:05:08;12.02;;;8.40;;
12059;SDS011;6091;51.432;6.880;2023-07-02T07:07:36;9.73;;;8.07;;
12059;SDS011;6091;51.432;6.880;2023-07-02T07:10:03;10.02;;;8.13;;
12059;SDS011;6091;51.432;6.880;2023-07-02T07:12:31;10.88;;;9.05;;
12059;SDS011;6091;51.432;6.880;2023-07-02T07:14:58;9.85;;;8.48;;
12059;SDS011;6091;51.432;6.880;2023-07-02T07:17:26;9.52;;;8.43;;
12059;SDS011;6091;51.432;6.880;2023-07-02T07:19:53;10.48;;;8.93;;
12059;SDS011;6091;51.432;6.880;2023-07-02T07:22:20;11.07;;;8.95;;
12059;SDS011;6091;51.432;6.880;2023-07-02T07:24:47;9.00;;;8.05;;
12059;SDS011;6091;51.432;6.880;2023-07-02T07:27:14;10.63;;;9.18;;
12059;SDS011;6091;51.432;6.880;2023-07-02T07:29:41;12.63;;;9.18;;
12059;SDS011;6091;51.432;6.880;2023-07-02T07:32:08;10.88;;;8.70;;
12059;SDS011;6091;51.432;6.880;2023-07-02T07:34:35;10.90;;;8.80;;
12059;SDS011;6091;51.432;6.880;2023-07-02T07:37:02;11.57;;;9.25;;
12059;SDS011;6091;51.432;6.880;2023-07-02T07:39:30;11.80;;;9.05;;
12059;SDS011;6091;51.432;6.880;2023-07-02T07:41:57;12.05;;;8.40;;
12059;SDS011;6091;51.432;6.880;2023-07-02T07:44:24;10.77;;;8.18;;
12059;SDS011;6091;51.432;6.880;2023-07-02T07:46:55;11.02;;;8.50;;
12059;SDS011;6091;51.432;6.880;2023-07-02T07:49:22;10.27;;;8.15;;
12059;SDS011;6091;51.432;6.880;2023-07-02T07:51:49;9.05;;;7.70;;
12059;SDS011;6091;51.432;6.880;2023-07-02T07:54:16;8.95;;;7.70;;
12059;SDS011;6091;51.432;6.880;2023-07-02T07:56:45;11.75;;;7.80;;
12059;SDS011;6091;51.432;6.880;2023-07-02T07:59:12;9.57;;;8.00;;
12059;SDS011;6091;51.432;6.880;2023-07-02T08:01:41;8.50;;;7.30;;
12059;SDS011;6091;51.432;6.880;2023-07-02T08:04:08;8.10;;;7.20;;
12059;SDS011;6091;51.432;6.880;2023-07-02T08:06:35;9.55;;;7.80;;
12059;SDS011;6091;51.432;6.880;2023-07-02T08:09:02;9.75;;;7.40;;
12059;SDS011;6091;51.432;6.880;2023-07-02T08:11:29;8.38;;;7.22;;
12059;SDS011;6091;51.432;6.880;2023-07-02T08:13:57;9.77;;;8.10;;
12059;SDS011;6091;51.432;6.880;2023-07-02T08:16:24;10.40;;;7.97;;
12059;SDS011;6091;51.432;6.880;2023-07-02T08:18:52;10.77;;;7.25;;
12059;SDS011;6091;51.432;6.880;2023-07-02T08:21:19;8.00;;;7.10;;
12059;SDS011;6091;51.432;6.880;2023-07-02T08:23:46;8.63;;;6.80;;
12059;SDS011;6091;51.432;6.880;2023-07-02T08:26:13;14.30;;;7.38;;
12059;SDS011;6091;51.432;6.880;2023-07-02T08:28:40;8.68;;;6.75;;
12059;SDS011;6091;51.432;6.880;2023-07-02T08:31:08;7.57;;;6.53;;
12059;SDS011;6091;51.432;6.880;2023-07-02T08:33:35;8.00;;;6.70;;
12059;SDS011;6091;51.432;6.880;2023-07-02T08:36:02;9.25;;;7.05;;
12059;SDS011;6091;51.432;6.880;2023-07-02T08:38:30;8.00;;;6.47;;
12059;SDS011;6091;51.432;6.880;2023-07-02T08:40:57;7.63;;;6.45;;
12059;SDS011;6091;51.432;6.880;2023-07-02T08:43:24;7.50;;;6.05;;
12059;SDS011;6091;51.432;6.880;2023-07-02T08:45:53;8.63;;;6.47;;
12059;SDS011;6091;51.432;6.880;2023-07-02T08:48:20;8.02;;;6.10;;
12059;SDS011;6091;51.432;6.880;2023-07-02T08:50:50;8.45;;;6.32;;
12059;SDS011;6091;51.432;6.880;2023-07-02T08:53:19;8.38;;;6.07;;
12059;SDS011;6091;51.432;6.880;2023-07-02T08:55:52;6.85;;;5.43;;
12059;SDS011;6091;51.432;6.880;2023-07-02T08:58:19;6.57;;;5.85;;
12059;SDS011;6091;51.432;6.880;2023-07-02T09:01:08;6.60;;;5.75;;
12059;SDS011;6091;51.432;6.880;2023-07-02T09:03:38;7.75;;;6.05;;
12059;SDS011;6091;51.432;6.880;2023-07-02T09:06:08;7.43;;;5.97;;
12059;SDS011;6091;51.432;6.880;2023-07-02T09:08:37;7.00;;;5.53;;
12059;SDS011;6091;51.432;6.880;2023-07-02T09:16:24;7.05;;;5.50;;
12059;SDS011;6091;51.432;6.880;2023-07-02T09:19:01;8.02;;;5.43;;
12059;SDS011;6091;51.432;6.880;2023-07-02T09:21:45;6.93;;;5.95;;
12059;SDS011;6091;51.432;6.880;2023-07-02T09:24:22;8.20;;;6.22;;
12059;SDS011;6091;51.432;6.880;2023-07-02T09:26:51;7.32;;;5.18;;
12059;SDS011;6091;51.432;6.880;2023-07-02T09:29:28;8.75;;;6.75;;
12059;SDS011;6091;51.432;6.880;2023-07-02T09:32:04;8.68;;;6.20;;
12059;SDS011;6091;51.432;6.880;2023-07-02T09:34:37;9.77;;;5.97;;
12059;SDS011;6091;51.432;6.880;2023-07-02T09:37:07;7.20;;;6.00;;
12059;SDS011;6091;51.432;6.880;2023-07-02T09:39:35;8.57;;;6.53;;
12059;SDS011;6091;51.432;6.880;2023-07-02T09:42:05;7.03;;;6.28;;
12059;SDS011;6091;51.432;6.880;2023-07-02T09:44:34;8.27;;;6.75;;
12059;SDS011;6091;51.432;6.880;2023-07-02T09:47:03;8.93;;;6.47;;
12059;SDS011;6091;51.432;6.880;2023-07-02T09:49:33;7.65;;;6.55;;
12059;SDS011;6091;51.432;6.880;2023-07-02T09:52:17;10.57;;;6.90;;
12059;SDS011;6091;51.432;6.880;2023-07-02T09:54:45;8.45;;;6.72;;
12059;SDS011;6091;51.432;6.880;2023-07-02T09:57:13;8.93;;;6.57;;
12059;SDS011;6091;51.432;6.880;2023-07-02T09:59:40;7.97;;;6.22;;
12059;SDS011;6091;51.432;6.880;2023-07-02T10:02:08;9.27;;;6.80;;
12059;SDS011;6091;51.432;6.880;2023-07-02T10:04:40;8.57;;;6.40;;
12059;SDS011;6091;51.432;6.880;2023-07-02T10:07:13;7.53;;;6.15;;
12059;SDS011;6091;51.432;6.880;2023-07-02T10:09:56;6.55;;;5.78;;
12059;SDS011;6091;51.432;6.880;2023-07-02T10:12:25;8.75;;;6.53;;
12059;SDS011;6091;51.432;6.880;2023-07-02T10:14:57;6.18;;;5.57;;
12059;SDS011;6091;51.432;6.880;2023-07-02T10:20:04;6.93;;;5.40;;
12059;SDS011;6091;51.432;6.880;2023-07-02T10:22:43;7.20;;;5.78;;
12059;SDS011;6091;51.432;6.880;2023-07-02T10:25:27;6.60;;;5.18;;
12059;SDS011;6091;51.432;6.880;2023-07-02T10:28:20;9.23;;;6.03;;
12059;SDS011;6091;51.432;6.880;2023-07-02T10:30:49;10.10;;;6.78;;
12059;SDS011;6091;51.432;6.880;2023-07-02T10:33:16;8.00;;;6.32;;
12059;SDS011;6091;51.432;6.880;2023-07-02T10:35:45;9.85;;;6.05;;
12059;SDS011;6091;51.432;6.880;2023-07-02T10:38:21;6.57;;;5.85;;
12059;SDS011;6091;51.432;6.880;2023-07-02T10:40:57;6.55;;;5.13;;
12059;SDS011;6091;51.432;6.880;2023-07-02T10:43:30;7.88;;;6.22;;
12059;SDS011;6091;51.432;6.880;2023-07-02T10:45:59;8.40;;;5.88;;
12059;SDS011;6091;51.432;6.880;2023-07-02T10:48:28;8.25;;;5.70;;
12059;SDS011;6091;51.432;6.880;2023-07-02T10:50:55;8.55;;;6.38;;
12059;SDS011;6091;51.432;6.880;2023-07-02T10:53:25;8.57;;;6.28;;
12059;SDS011;6091;51.432;6.880;2023-07-02T10:55:56;6.65;;;5.30;;
12059;SDS011;6091;51.432;6.880;2023-07-02T10:58:24;6.05;;;5.45;;
12059;SDS011;6091;51.432;6.880;2023-07-02T11:00:51;8.23;;;5.90;;
12059;SDS011;6091;51.432;6.880;2023-07-02T11:03:19;7.72;;;5.70;;
12059;SDS011;6091;51.432;6.880;2023-07-02T11:05:53;9.07;;;5.65;;
12059;SDS011;6091;51.432;6.880;2023-07-02T11:08:21;7.25;;;5.55;;
12059;SDS011;6091;51.432;6.880;2023-07-02T11:10:49;7.80;;;5.72;;
12059;SDS011;6091;51.432;6.880;2023-07-02T11:13:18;7.20;;;5.30;;
12059;SDS011;6091;51.432;6.880;2023-07-02T11:15:46;9.27;;;6.10;;
12059;SDS011;6091;51.432;6.880;2023-07-02T11:18:15;7.90;;;5.43;;
12059;SDS011;6091;51.432;6.880;2023-07-02T11:20:45;7.53;;;5.20;;
12059;SDS011;6091;51.432;6.880;2023-07-02T11:23:20;9.02;;;5.90;;
12059;SDS011;6091;51.432;6.880;2023-07-02T11:28:25;5.35;;;4.85;;
12059;SDS011;6091;51.432;6.880;2023-07-02T11:30:54;6.03;;;5.25;;
12059;SDS011;6091;51.432;6.880;2023-07-02T11:33:37;7.95;;;5.72;;
12059;SDS011;6091;51.432;6.880;2023-07-02T11:36:07;9.45;;;6.00;;
12059;SDS011;6091;51.432;6.880;2023-07-02T11:38:50;8.43;;;4.88;;
12059;SDS011;6091;51.432;6.880;2023-07-02T11:41:19;6.25;;;5.60;;
12059;SDS011;6091;51.432;6.880;2023-07-02T11:43:47;8.18;;;5.47;;
12059;SDS011;6091;51.432;6.880;2023-07-02T11:46:14;7.30;;;4.85;;
12059;SDS011;6091;51.432;6.880;2023-07-02T11:48:42;6.28;;;5.35;;
12059;SDS011;6091;51.432;6.880;2023-07-02T11:51:09;5.57;;;4.90;;
12059;SDS011;6091;51.432;6.880;2023-07-02T11:53:36;6.72;;;4.65;;
12059;SDS011;6091;51.432;6.880;2023-07-02T11:56:03;6.90;;;4.82;;
12059;SDS011;6091;51.432;6.880;2023-07-02T11:58:30;7.68;;;5.07;;
12059;SDS011;6091;51.432;6.880;2023-07-02T12:00:57;6.95;;;4.95;;
12059;SDS011;6091;51.432;6.880;2023-07-02T12:03:24;5.18;;;4.68;;
12059;SDS011;6091;51.432;6.880;2023-07-02T12:05:51;8.13;;;5.07;;
12059;SDS011;6091;51.432;6.880;2023-07-02T12:08:18;6.30;;;4.55;;
12059;SDS011;6091;51.432;6.880;2023-07-02T12:10:45;6.80;;;5.28;;
12059;SDS011;6091;51.432;6.880;2023-07-02T12:13:12;7.38;;;5.55;;
12059;SDS011;6091;51.432;6.880;2023-07-02T12:15:40;7.47;;;5.85;;
12059;SDS011;6091;51.432;6.880;2023-07-02T12:18:08;8.13;;;5.72;;
12059;SDS011;6091;51.432;6.880;2023-07-02T12:20:36;6.78;;;5.78;;
12059;SDS011;6091;51.432;6.880;2023-07-02T12:23:04;5.93;;;5.22;;
12059;SDS011;6091;51.432;6.880;2023-07-02T12:25:31;8.18;;;5.63;;
12059;SDS011;6091;51.432;6.880;2023-07-02T12:27:59;5.68;;;4.95;;
12059;SDS011;6091;51.432;6.880;2023-07-02T12:30:26;6.28;;;5.13;;
12059;SDS011;6091;51.432;6.880;2023-07-02T12:32:53;7.82;;;5.60;;
12059;SDS011;6091;51.432;6.880;2023-07-02T12:35:20;7.32;;;5.82;;
12059;SDS011;6091;51.432;6.880;2023-07-02T12:37:48;6.15;;;5.07;;
12059;SDS011;6091;51.432;6.880;2023-07-02T12:40:18;8.35;;;5.28;;
12059;SDS011;6091;51.432;6.880;2023-07-02T12:42:47;6.20;;;4.95;;
12059;SDS011;6091;51.432;6.880;2023-07-02T12:45:19;7.68;;;5.45;;
12059;SDS011;6091;51.432;6.880;2023-07-02T12:47:47;6.60;;;5.13;;
12059;SDS011;6091;51.432;6.880;2023-07-02T12:50:14;7.38;;;5.35;;
12059;SDS011;6091;51.432;6.880;2023-07-02T12:52:41;6.80;;;5.18;;
12059;SDS011;6091;51.432;6.880;2023-07-02T12:55:09;6.15;;;5.13;;
12059;SDS011;6091;51.432;6.880;2023-07-02T12:57:36;8.07;;;6.00;;
12059;SDS011;6091;51.432;6.880;2023-07-02T13:00:03;8.60;;;5.70;;
12059;SDS011;6091;51.432;6.880;2023-07-02T13:02:35;7.40;;;5.72;;
12059;SDS011;6091;51.432;6.880;2023-07-02T13:05:19;6.10;;;5.50;;
12059;SDS011;6091;51.432;6.880;2023-07-02T13:07:46;8.10;;;5.95;;
12059;SDS011;6091;51.432;6.880;2023-07-02T13:10:13;7.75;;;5.40;;
12059;SDS011;6091;51.432;6.880;2023-07-02T13:12:40;7.75;;;6.20;;
12059;SDS011;6091;51.432;6.880;2023-07-02T13:15:07;6.25;;;5.65;;
12059;SDS011;6091;51.432;6.880;2023-07-02T13:17:35;6.75;;;5.90;;
12059;SDS011;6091;51.432;6.880;2023-07-02T13:20:02;9.65;;;6.32;;
12059;SDS011;6091;51.432;6.880;2023-07-02T13:22:30;9.60;;;5.82;;
12059;SDS011;6091;51.432;6.880;2023-07-02T13:24:57;8.43;;;6.28;;
12059;SDS011;6091;51.432;6.880;2023-07-02T13:27:24;7.63;;;5.93;;
12059;SDS011;6091;51.432;6.880;2023-07-02T13:29:51;7.70;;;5.88;;
12059;SDS011;6091;51.432;6.880;2023-07-02T13:32:18;8.95;;;6.82;;
12059;SDS011;6091;51.432;6.880;2023-07-02T13:34:45;7.60;;;6.25;;
12059;SDS011;6091;51.432;6.880;2023-07-02T13:37:12;6.82;;;5.38;;
12059;SDS011;6091;51.432;6.880;2023-07-02T13:39:44;9.23;;;5.90;;
12059;SDS011;6091;51.432;6.880;2023-07-02T13:42:12;7.82;;;5.68;;
12059;SDS011;6091;51.432;6.880;2023-07-02T13:44:40;7.43;;;5.68;;
12059;SDS011;6091;51.432;6.880;2023-07-02T13:47:08;7.03;;;5.88;;
12059;SDS011;6091;51.432;6.880;2023-07-02T13:49:35;7.57;;;5.97;;
12059;SDS011;6091;51.432;6.880;2023-07-02T13:52:03;7.20;;;6.13;;
12059;SDS011;6091;51.432;6.880;2023-07-02T13:54:31;8.05;;;6.25;;
12059;SDS011;6091;51.432;6.880;2023-07-02T13:57:02;8.68;;;6.68;;
12059;SDS011;6091;51.432;6.880;2023-07-02T13:59:30;10.90;;;6.43;;
12059;SDS011;6091;51.432;6.880;2023-07-02T14:01:57;8.10;;;6.05;;
12059;SDS011;6091;51.432;6.880;2023-07-02T14:04:24;7.88;;;5.78;;
12059;SDS011;6091;51.432;6.880;2023-07-02T14:06:51;8.48;;;6.50;;
12059;SDS011;6091;51.432;6.880;2023-07-02T14:09:20;8.38;;;6.20;;
12059;SDS011;6091;51.432;6.880;2023-07-02T14:11:47;8.73;;;6.03;;
12059;SDS011;6091;51.432;6.880;2023-07-02T14:14:14;8.63;;;6.40;;
12059;SDS011;6091;51.432;6.880;2023-07-02T14:16:41;7.82;;;6.22;;
12059;SDS011;6091;51.432;6.880;2023-07-02T14:19:09;7.03;;;5.75;;
12059;SDS011;6091;51.432;6.880;2023-07-02T14:21:36;9.95;;;6.50;;
12059;SDS011;6091;51.432;6.880;2023-07-02T14:24:03;7.03;;;5.72;;
12059;SDS011;6091;51.432;6.880;2023-07-02T14:26:31;7.32;;;5.68;;
12059;SDS011;6091;51.432;6.880;2023-07-02T14:28:58;8.48;;;6.95;;
12059;SDS011;6091;51.432;6.880;2023-07-02T14:31:25;7.72;;;6.88;;
12059;SDS011;6091;51.432;6.880;2023-07-02T14:33:53;8.25;;;6.95;;
12059;SDS011;6091;51.432;6.880;2023-07-02T14:36:20;8.52;;;6.63;;
12059;SDS011;6091;51.432;6.880;2023-07-02T14:38:47;8.35;;;6.63;;
12059;SDS011;6091;51.432;6.880;2023-07-02T14:41:14;8.88;;;6.68;;
12059;SDS011;6091;51.432;6.880;2023-07-02T14:43:44;9.10;;;6.00;;
12059;SDS011;6091;51.432;6.880;2023-07-02T14:46:11;8.98;;;6.50;;
12059;SDS011;6091;51.432;6.880;2023-07-02T14:48:39;9.32;;;6.38;;
12059;SDS011;6091;51.432;6.880;2023-07-02T14:51:09;9.93;;;6.82;;
12059;SDS011;6091;51.432;6.880;2023-07-02T14:53:36;8.38;;;6.68;;
12059;SDS011;6091;51.432;6.880;2023-07-02T14:56:05;8.35;;;6.28;;
12059;SDS011;6091;51.432;6.880;2023-07-02T14:58:32;8.65;;;6.20;;
12059;SDS011;6091;51.432;6.880;2023-07-02T15:00:59;6.97;;;5.68;;
12059;SDS011;6091;51.432;6.880;2023-07-02T15:03:27;8.45;;;5.93;;
12059;SDS011;6091;51.432;6.880;2023-07-02T15:06:06;6.55;;;5.82;;
12059;SDS011;6091;51.432;6.880;2023-07-02T15:08:46;7.63;;;5.88;;
12059;SDS011;6091;51.432;6.880;2023-07-02T15:11:13;7.10;;;6.32;;
12059;SDS011;6091;51.432;6.880;2023-07-02T15:13:45;8.38;;;6.60;;
12059;SDS011;6091;51.432;6.880;2023-07-02T15:16:12;7.40;;;6.13;;
12059;SDS011;6091;51.432;6.880;2023-07-02T15:18:39;9.55;;;6.97;;
12059;SDS011;6091;51.432;6.880;2023-07-02T15:21:07;7.78;;;6.35;;
12059;SDS011;6091;51.432;6.880;2023-07-02T15:23:35;7.63;;;6.82;;